createdAt,value
2022-09-12T00:01:38.570Z,97.31
2022-09-12T00:04:05.539Z,97.19
2022-09-12T00:06:36.948Z,97.36
2022-09-12T00:09:09.883Z,97.38
2022-09-12T00:11:38.214Z,97.01
2022-09-12T00:14:06.831Z,97.43
2022-09-12T00:16:35.290Z,97.45
2022-09-12T00:19:03.195Z,97.23
2022-09-12T00:21:32.341Z,97.46
2022-09-12T00:23:59.069Z,97.44
2022-09-12T00:26:25.942Z,97.80
2022-09-12T00:28:52.984Z,97.59
2022-09-12T00:31:24.168Z,97.89
2022-09-12T00:33:51.569Z,97.90
2022-09-12T00:36:23.087Z,97.70
2022-09-12T00:38:51.122Z,97.95
2022-09-12T00:41:19.921Z,98.04
2022-09-12T00:43:56.038Z,97.89
2022-09-12T00:46:46.050Z,97.90
2022-09-12T00:49:36.605Z,98.19
2022-09-12T00:52:10.539Z,97.99
2022-09-12T00:55:15.825Z,98.18
2022-09-12T00:57:50.021Z,98.51
2022-09-12T01:00:19.757Z,98.45
2022-09-12T01:02:54.917Z,98.29
2022-09-12T01:05:23.473Z,98.45
2022-09-12T01:07:51.806Z,98.66
2022-09-12T01:10:19.679Z,98.06
2022-09-12T01:12:47.610Z,98.51
2022-09-12T01:15:14.488Z,98.29
2022-09-12T01:18:01.336Z,98.53
2022-09-12T01:20:40.213Z,98.44
2022-09-12T01:23:09.106Z,98.25
2022-09-12T01:26:07.929Z,98.44
2022-09-12T01:28:53.334Z,98.39
2022-09-12T01:31:35.215Z,98.35
2022-09-12T01:34:33.145Z,98.03
2022-09-12T01:37:26.689Z,98.48
2022-09-12T01:40:15.292Z,98.33
2022-09-12T01:42:52.158Z,98.59
2022-09-12T01:45:41.516Z,98.61
2022-09-12T01:48:19.698Z,98.23
2022-09-12T01:50:52.451Z,98.60
2022-09-12T01:53:26.350Z,98.20
2022-09-12T01:56:25.741Z,98.56
2022-09-12T01:58:58.322Z,98.34
2022-09-12T02:01:35.375Z,98.80
2022-09-12T02:04:15.339Z,98.71
2022-09-12T02:06:52.381Z,98.44
2022-09-12T02:09:23.916Z,98.88
2022-09-12T02:11:53.595Z,98.81
2022-09-12T02:14:33.998Z,98.78
2022-09-12T02:17:11.910Z,99.22
2022-09-12T02:19:47.061Z,99.26
2022-09-12T02:22:18.301Z,98.98
2022-09-12T02:24:50.762Z,99.07
2022-09-12T02:27:23.201Z,98.56
2022-09-12T02:29:50.541Z,98.61
2022-09-12T02:32:36.386Z,98.75
2022-09-12T02:35:22.628Z,98.31
2022-09-12T02:37:58.424Z,98.37
2022-09-12T02:40:25.770Z,98.20
2022-09-12T02:42:52.709Z,98.21
2022-09-12T02:45:19.561Z,98.39
2022-09-12T02:47:53.739Z,98.55
2022-09-12T02:50:21.054Z,98.21
2022-09-12T02:52:48.642Z,98.07
2022-09-12T02:55:16.510Z,98.00
2022-09-12T02:57:43.171Z,97.65
2022-09-12T03:00:10.454Z,97.82
2022-09-12T03:03:04.238Z,97.87
2022-09-12T03:05:35.233Z,97.80
2022-09-12T03:08:31.391Z,97.44
2022-09-12T03:11:00.976Z,97.26
2022-09-12T03:13:42.944Z,97.54
2022-09-12T03:16:41.725Z,97.52
2022-09-12T03:19:24.182Z,97.40
2022-09-12T03:22:09.180Z,97.71
2022-09-12T03:24:43.671Z,97.29
2022-09-12T03:27:17.066Z,97.66
2022-09-12T03:29:47.923Z,97.46
2022-09-12T03:32:15.421Z,97.40
2022-09-12T03:34:42.147Z,97.54
2022-09-12T03:37:08.981Z,97.07
2022-09-12T03:39:35.644Z,97.70
2022-09-12T03:42:02.352Z,97.23
2022-09-12T03:44:29.129Z,97.12
2022-09-12T03:46:55.834Z,97.72
2022-09-12T03:49:22.596Z,97.21
2022-09-12T03:51:49.356Z,96.99
2022-09-12T03:54:16.132Z,97.31
2022-09-12T03:56:42.866Z,97.05
2022-09-12T03:59:09.567Z,96.34
2022-09-12T04:01:37.851Z,97.31
2022-09-12T04:04:04.583Z,97.21
2022-09-12T04:06:31.753Z,97.20
2022-09-12T04:11:39.088Z,96.79
2022-09-12T04:14:05.860Z,97.30
2022-09-12T04:16:32.980Z,97.31
2022-09-12T04:18:59.747Z,97.39
2022-09-12T04:21:26.520Z,97.02
2022-09-12T04:23:53.260Z,97.52
2022-09-12T04:26:21.200Z,97.62
2022-09-12T04:28:48.440Z,97.40
2022-09-12T04:31:18.104Z,96.87
2022-09-12T04:33:45.685Z,96.66
2022-09-12T04:36:16.627Z,96.37
2022-09-12T04:38:45.434Z,96.43
2022-09-12T04:41:16.541Z,96.11
2022-09-12T04:43:47.101Z,95.37
2022-09-12T04:46:17.025Z,95.67
2022-09-12T04:48:44.280Z,95.77
2022-09-12T04:51:21.097Z,95.49
2022-09-12T04:53:50.542Z,95.50
2022-09-12T04:56:17.439Z,95.46
2022-09-12T04:58:44.754Z,95.48
2022-09-12T05:01:17.173Z,95.49
2022-09-12T05:03:45.627Z,94.90
2022-09-12T05:06:15.720Z,95.04
2022-09-12T05:08:43.065Z,95.59
2022-09-12T05:11:22.730Z,95.22
2022-09-12T05:13:51.872Z,95.17
2022-09-12T05:16:20.093Z,95.15
2022-09-12T05:18:47.637Z,95.41
2022-09-12T05:21:17.890Z,95.20
2022-09-12T05:23:47.867Z,94.99
2022-09-12T05:26:16.272Z,95.54
2022-09-12T05:28:43.836Z,95.19
2022-09-12T05:31:25.373Z,95.54
2022-09-12T05:33:53.076Z,95.05
2022-09-12T05:36:22.548Z,94.93
2022-09-12T05:38:49.848Z,94.66
2022-09-12T05:41:22.989Z,94.45
2022-09-12T05:43:53.810Z,95.27
2022-09-12T05:46:22.682Z,94.61
2022-09-12T05:48:55.068Z,94.76
2022-09-12T05:51:28.472Z,94.36
2022-09-12T05:53:57.943Z,94.89
2022-09-12T05:56:27.377Z,95.12
2022-09-12T05:58:55.903Z,94.79
2022-09-12T06:01:23.452Z,94.96
2022-09-12T06:03:52.842Z,94.09
2022-09-12T06:06:21.832Z,94.22
2022-09-12T06:08:51.530Z,94.06
2022-09-12T06:11:22.012Z,94.40
2022-09-12T06:13:50.482Z,92.50
2022-09-12T06:16:19.639Z,89.08
2022-09-12T06:18:56.591Z,89.21
2022-09-12T06:21:24.702Z,86.03
2022-09-12T06:23:51.483Z,84.25
2022-09-12T06:26:21.675Z,83.79
2022-09-12T06:28:48.581Z,81.67
2022-09-12T06:31:18.925Z,81.38
2022-09-12T06:33:48.900Z,77.92
2022-09-12T06:36:18.030Z,77.20
2022-09-12T06:38:51.409Z,76.13
2022-09-12T06:41:18.161Z,75.39
2022-09-12T06:43:46.373Z,74.01
2022-09-12T06:46:13.234Z,72.87
2022-09-12T06:48:42.053Z,73.51
2022-09-12T06:51:14.797Z,72.17
2022-09-12T06:53:42.483Z,71.99
2022-09-12T06:56:12.668Z,71.01
2022-09-12T06:58:40.145Z,71.05
2022-09-12T07:01:12.861Z,68.97
2022-09-12T07:03:39.956Z,69.06
2022-09-12T07:06:07.961Z,68.09
2022-09-12T07:08:35.949Z,66.95
2022-09-12T07:11:10.541Z,67.68
2022-09-12T07:13:38.092Z,67.19
2022-09-12T07:16:05.711Z,70.12
2022-09-12T07:18:34.074Z,71.20
2022-09-12T07:21:04.904Z,73.66
2022-09-12T07:23:31.771Z,73.53
2022-09-12T07:26:00.708Z,73.01
2022-09-12T07:28:30.234Z,72.61
2022-09-12T07:30:57.321Z,74.15
2022-09-12T07:33:27.706Z,71.03
2022-09-12T07:35:55.062Z,75.52
2022-09-12T07:38:22.217Z,71.74
2022-09-12T07:40:49.481Z,75.38
2022-09-12T07:43:16.094Z,74.74
2022-09-12T07:45:43.511Z,68.84
2022-09-12T07:48:10.175Z,68.86
2022-09-12T07:50:37.211Z,68.80
2022-09-12T07:53:05.186Z,67.90
2022-09-12T07:55:32.326Z,65.09
2022-09-12T07:57:59.101Z,62.30
2022-09-12T08:00:26.712Z,62.87
2022-09-12T08:02:54.128Z,64.96
2022-09-12T08:05:20.992Z,61.27
2022-09-12T08:07:47.827Z,62.12
2022-09-12T08:10:16.324Z,61.84
2022-09-12T08:12:42.981Z,59.38
2022-09-12T08:15:10.017Z,61.17
2022-09-12T08:17:36.788Z,60.62
2022-09-12T08:20:04.297Z,62.28
2022-09-12T08:22:31.581Z,59.12
2022-09-12T08:24:58.707Z,59.84
2022-09-12T08:27:25.374Z,60.53
2022-09-12T08:29:53.731Z,59.83
2022-09-12T08:32:20.426Z,56.58
2022-09-12T08:34:47.168Z,58.95
2022-09-12T08:37:13.838Z,58.74
2022-09-12T08:39:40.613Z,59.30
2022-09-12T08:45:00.793Z,61.88
2022-09-12T08:47:44.172Z,61.14
2022-09-12T08:50:11.686Z,60.90
2022-09-12T08:53:06.294Z,61.61
2022-09-12T08:55:45.258Z,62.80
2022-09-12T08:58:20.870Z,64.23
2022-09-12T09:00:59.574Z,66.97
2022-09-12T09:03:38.770Z,64.58
2022-09-12T09:06:13.273Z,67.03
2022-09-12T09:08:58.373Z,64.96
2022-09-12T09:11:54.558Z,68.94
2022-09-12T09:15:09.312Z,69.15
2022-09-12T09:17:40.211Z,68.90
2022-09-12T09:20:28.890Z,69.90
2022-09-12T09:23:10.768Z,71.58
2022-09-12T09:26:01.882Z,69.78
2022-09-12T09:28:43.156Z,66.77
2022-09-12T09:31:16.826Z,65.31
2022-09-12T09:33:46.483Z,63.74
2022-09-12T09:36:50.376Z,63.17
2022-09-12T09:39:25.927Z,64.84
2022-09-12T09:42:18.750Z,67.23
2022-09-12T09:44:49.111Z,68.57
2022-09-12T09:47:19.291Z,66.22
2022-09-12T09:49:47.282Z,65.33
2022-09-12T09:52:27.418Z,63.48
2022-09-12T09:55:03.017Z,65.98
2022-09-12T09:57:35.828Z,66.50
2022-09-12T10:00:26.002Z,64.04
2022-09-12T10:03:00.955Z,65.21
2022-09-12T10:05:28.771Z,65.69
2022-09-12T10:07:55.619Z,63.17
2022-09-12T10:10:23.191Z,58.87
2022-09-12T10:12:50.496Z,63.60
2022-09-12T10:15:18.795Z,58.87
2022-09-12T10:17:47.855Z,56.33
2022-09-12T10:20:42.089Z,60.23
2022-09-12T10:23:17.972Z,60.50
2022-09-12T10:26:08.465Z,62.21
2022-09-12T10:28:56.290Z,60.56
2022-09-12T10:32:03.278Z,60.42
2022-09-12T10:34:36.312Z,63.02
2022-09-12T10:37:07.198Z,64.64
2022-09-12T10:39:36.268Z,62.60
2022-09-12T10:42:04.295Z,64.44
2022-09-12T10:44:33.792Z,64.61
2022-09-12T10:47:20.384Z,63.91
2022-09-12T10:49:47.201Z,64.19
2022-09-12T10:52:23.140Z,64.11
2022-09-12T10:54:53.718Z,64.62
2022-09-12T10:57:21.132Z,62.32
2022-09-12T10:59:50.731Z,61.82
2022-09-12T11:02:53.241Z,61.60
2022-09-12T11:05:38.096Z,59.18
2022-09-12T11:08:23.295Z,61.74
2022-09-12T11:11:18.675Z,64.76
2022-09-12T11:14:12.810Z,62.24
2022-09-12T11:16:50.612Z,64.25
2022-09-12T11:19:54.889Z,61.53
2022-09-12T11:22:38.965Z,61.52
2022-09-12T11:25:13.950Z,63.15
2022-09-12T11:28:02.266Z,61.53
2022-09-12T11:30:39.276Z,62.71
2022-09-12T11:33:30.524Z,65.14
2022-09-12T11:35:57.880Z,62.74
2022-09-12T11:38:39.495Z,67.14
2022-09-12T11:41:11.507Z,64.29
2022-09-12T11:43:55.574Z,67.79
2022-09-12T11:46:34.002Z,67.45
2022-09-12T11:49:35.265Z,67.77
2022-09-12T11:52:23.870Z,68.42
2022-09-12T11:55:08.533Z,66.13
2022-09-12T11:57:45.773Z,64.87
2022-09-12T12:00:19.634Z,61.98
2022-09-12T12:03:13.748Z,61.13
2022-09-12T12:05:40.458Z,61.67
2022-09-12T12:08:08.060Z,61.43
2022-09-12T12:10:50.718Z,62.32
2022-09-12T12:13:29.724Z,61.88
2022-09-12T12:16:00.960Z,64.44
2022-09-12T12:18:31.953Z,62.51
2022-09-12T12:21:18.611Z,64.39
2022-09-12T12:24:02.525Z,63.04
2022-09-12T12:26:41.361Z,63.50
2022-09-12T12:29:12.720Z,64.10
2022-09-12T12:32:05.167Z,63.62
2022-09-12T12:34:41.942Z,64.15
2022-09-12T12:37:20.938Z,63.25
2022-09-12T12:39:51.046Z,63.36
2022-09-12T12:42:33.397Z,65.06
2022-09-12T12:45:08.968Z,65.63
2022-09-12T12:47:38.625Z,63.04
2022-09-12T12:50:14.192Z,67.00
2022-09-12T12:52:51.991Z,66.04
2022-09-12T12:55:27.793Z,66.02
2022-09-12T12:57:56.838Z,67.01
2022-09-12T13:00:26.651Z,67.35
2022-09-12T13:03:01.569Z,67.76
2022-09-12T13:05:38.295Z,67.51
2022-09-12T13:08:10.468Z,68.28
2022-09-12T13:10:38.228Z,68.16
2022-09-12T13:13:08.749Z,68.14
2022-09-12T13:15:50.269Z,68.25
2022-09-12T13:18:23.509Z,68.42
2022-09-12T13:21:13.389Z,66.75
2022-09-12T13:23:41.325Z,67.46
2022-09-12T13:26:22.548Z,66.66
2022-09-12T13:28:50.194Z,65.41
2022-09-12T13:31:19.831Z,65.56
2022-09-12T13:33:54.732Z,64.94
2022-09-12T13:36:44.836Z,65.11
2022-09-12T13:39:29.272Z,63.97
2022-09-12T13:42:32.978Z,65.79
2022-09-12T13:45:22.137Z,64.47
2022-09-12T13:47:58.744Z,67.61
2022-09-12T13:50:31.853Z,68.69
2022-09-12T13:53:02.092Z,64.35
2022-09-12T13:55:32.596Z,64.75
2022-09-12T13:58:07.564Z,65.52
2022-09-12T14:00:35.108Z,65.30
2022-09-12T14:03:20.772Z,65.76
2022-09-12T14:05:57.429Z,65.13
2022-09-12T14:08:24.830Z,58.78
2022-09-12T14:10:51.610Z,54.73
2022-09-12T14:13:25.259Z,51.43
2022-09-12T14:15:54.963Z,49.58
2022-09-12T14:18:31.227Z,50.76
2022-09-12T14:21:09.073Z,48.58
2022-09-12T14:23:41.032Z,50.23
2022-09-12T14:26:12.453Z,48.14
2022-09-12T14:28:43.408Z,48.15
2022-09-12T14:31:13.133Z,47.86
2022-09-12T14:33:52.255Z,47.16
2022-09-12T14:36:22.023Z,47.47
2022-09-12T14:39:02.423Z,47.18
2022-09-12T14:41:37.656Z,46.75
2022-09-12T14:44:15.455Z,47.85
2022-09-12T14:46:44.398Z,48.42
2022-09-12T14:49:16.332Z,47.86
2022-09-12T14:51:51.912Z,49.05
2022-09-12T14:54:27.809Z,49.40
2022-09-12T14:57:00.479Z,49.86
2022-09-12T14:59:40.413Z,51.31
2022-09-12T15:02:19.762Z,50.88
2022-09-12T15:04:55.312Z,50.74
2022-09-12T15:07:39.098Z,49.96
2022-09-12T15:10:25.183Z,50.42
2022-09-12T15:13:09.948Z,51.68
2022-09-12T15:15:39.364Z,50.90
2022-09-12T15:18:06.976Z,52.99
2022-09-12T15:20:39.015Z,51.83
2022-09-12T15:23:13.229Z,52.72
2022-09-12T15:25:39.997Z,52.24
2022-09-12T15:28:16.926Z,52.59
2022-09-12T15:30:44.045Z,53.59
2022-09-12T15:33:12.140Z,57.54
2022-09-12T15:35:39.409Z,63.54
2022-09-12T15:38:06.133Z,67.62
2022-09-12T15:40:32.836Z,70.69
2022-09-12T15:43:00.039Z,69.37
2022-09-12T15:45:30.319Z,70.29
2022-09-12T15:47:57.730Z,68.11
2022-09-12T15:50:25.300Z,67.97
2022-09-12T15:52:52.485Z,67.02
2022-09-12T15:55:28.711Z,65.24
2022-09-12T15:57:55.824Z,63.51
2022-09-12T16:00:23.862Z,62.85
2022-09-12T16:02:52.953Z,61.91
2022-09-12T16:05:24.400Z,61.33
2022-09-12T16:07:53.762Z,59.83
2022-09-12T16:10:29.900Z,59.20
2022-09-12T16:12:57.432Z,59.47
2022-09-12T16:15:26.099Z,60.03
2022-09-12T16:17:53.209Z,59.47
2022-09-12T16:20:21.046Z,58.75
2022-09-12T16:22:48.113Z,58.80
2022-09-12T16:25:14.880Z,58.72
2022-09-12T16:27:42.024Z,58.84
2022-09-12T16:30:10.315Z,58.45
2022-09-12T16:32:37.103Z,57.63
2022-09-12T16:35:04.847Z,57.33
2022-09-12T16:37:32.388Z,59.02
2022-09-12T16:39:59.214Z,57.29
2022-09-12T16:42:26.007Z,57.54
2022-09-12T16:44:52.685Z,57.95
2022-09-12T16:47:19.847Z,55.76
2022-09-12T16:49:46.616Z,54.88
2022-09-12T16:52:16.505Z,55.28
2022-09-12T16:54:44.705Z,55.04
2022-09-12T16:57:12.024Z,54.19
2022-09-12T16:59:38.760Z,54.51
2022-09-12T17:02:06.182Z,53.82
2022-09-12T17:04:33.030Z,54.26
2022-09-12T17:06:59.726Z,53.54
2022-09-12T17:09:28.179Z,53.90
2022-09-12T17:11:55.536Z,54.42
2022-09-12T17:14:22.484Z,54.14
2022-09-12T17:16:51.887Z,54.47
2022-09-12T17:19:29.637Z,54.73
2022-09-12T17:21:57.215Z,54.07
2022-09-12T17:24:24.132Z,54.93
2022-09-12T17:26:51.673Z,54.71
2022-09-12T17:29:18.476Z,54.70
2022-09-12T17:31:45.629Z,55.00
2022-09-12T17:34:14.631Z,54.73
2022-09-12T17:36:44.367Z,54.94
2022-09-12T17:39:13.102Z,55.03
2022-09-12T17:41:41.789Z,54.54
2022-09-12T17:44:11.786Z,54.45
2022-09-12T17:46:39.732Z,55.32
2022-09-12T17:49:11.539Z,55.50
2022-09-12T17:51:38.313Z,55.00
2022-09-12T17:54:17.066Z,55.07
2022-09-12T17:56:46.572Z,55.05
2022-09-12T17:59:19.210Z,53.82
2022-09-12T18:02:05.479Z,53.65
2022-09-12T18:04:32.657Z,54.37
2022-09-12T18:07:00.479Z,54.13
2022-09-12T18:09:28.136Z,54.51
2022-09-12T18:11:55.384Z,55.00
2022-09-12T18:14:22.326Z,54.49
2022-09-12T18:16:49.384Z,54.98
2022-09-12T18:19:16.779Z,54.97
2022-09-12T18:21:43.441Z,55.15
2022-09-12T18:24:10.937Z,56.00
2022-09-12T18:26:38.028Z,55.56
2022-09-12T18:29:04.921Z,55.60
2022-09-12T18:31:31.797Z,56.18
2022-09-12T18:34:00.370Z,56.07
2022-09-12T18:36:27.626Z,56.17
2022-09-12T18:38:55.188Z,55.86
2022-09-12T18:41:24.052Z,56.07
2022-09-12T18:43:56.125Z,57.09
2022-09-12T18:46:23.139Z,57.71
2022-09-12T18:48:49.982Z,57.85
2022-09-12T18:51:20.058Z,58.16
2022-09-12T18:53:57.971Z,58.27
2022-09-12T18:56:27.577Z,58.94
2022-09-12T18:58:56.654Z,58.78
2022-09-12T19:01:28.723Z,58.89
2022-09-12T19:03:55.833Z,59.59
2022-09-12T19:06:27.901Z,59.50
2022-09-12T19:08:56.212Z,59.62
2022-09-12T19:11:23.773Z,60.65
2022-09-12T19:13:52.346Z,61.52
2022-09-12T19:16:21.890Z,61.38
2022-09-12T19:18:49.920Z,62.28
2022-09-12T19:21:19.236Z,61.96
2022-09-12T19:23:46.364Z,61.66
2022-09-12T19:26:14.854Z,61.31
2022-09-12T19:28:42.618Z,61.36
2022-09-12T19:31:12.286Z,60.99
2022-09-12T19:33:39.504Z,61.99
2022-09-12T19:36:22.246Z,62.35
2022-09-12T19:38:55.746Z,62.16
2022-09-12T19:41:22.497Z,62.77
2022-09-12T19:43:49.304Z,62.45
2022-09-12T19:46:24.804Z,63.27
2022-09-12T19:48:52.585Z,62.85
2022-09-12T19:51:20.799Z,63.63
2022-09-12T19:53:50.198Z,63.64
2022-09-12T19:56:17.200Z,63.86
2022-09-12T19:58:48.311Z,63.34
2022-09-12T20:01:24.695Z,62.91
2022-09-12T20:03:54.489Z,63.19
2022-09-12T20:06:21.307Z,63.58
2022-09-12T20:08:48.131Z,63.64
2022-09-12T20:11:17.647Z,63.51
2022-09-12T20:13:45.660Z,64.23
2022-09-12T20:16:21.428Z,64.50
2022-09-12T20:18:53.613Z,64.82
2022-09-12T20:21:23.445Z,65.17
2022-09-12T20:23:50.203Z,65.28
2022-09-12T20:26:17.385Z,65.73
2022-09-12T20:28:44.150Z,66.13
2022-09-12T20:31:13.804Z,66.59
2022-09-12T20:33:40.773Z,66.51
2022-09-12T20:36:10.758Z,66.07
2022-09-12T20:38:38.751Z,65.81
2022-09-12T20:41:07.372Z,66.29
2022-09-12T20:43:34.110Z,65.80
2022-09-12T20:46:05.335Z,66.31
2022-09-12T20:48:32.805Z,66.24
2022-09-12T20:50:59.801Z,66.72
2022-09-12T20:53:29.638Z,67.31
2022-09-12T20:55:58.537Z,68.14
2022-09-12T20:58:25.279Z,68.45
2022-09-12T21:00:52.326Z,68.37
2022-09-12T21:03:19.243Z,69.50
2022-09-12T21:05:46.665Z,69.70
2022-09-12T21:08:14.638Z,69.41
2022-09-12T21:10:42.713Z,69.58
2022-09-12T21:13:10.788Z,69.83
2022-09-12T21:15:41.345Z,69.24
2022-09-12T21:18:08.270Z,68.77
2022-09-12T21:20:35.049Z,69.24
2022-09-12T21:23:01.936Z,69.20
2022-09-12T21:25:30.050Z,68.86
2022-09-12T21:27:57.117Z,68.43
2022-09-12T21:30:24.100Z,68.46
2022-09-12T21:32:50.814Z,69.40
2022-09-12T21:35:17.525Z,69.80
2022-09-12T21:37:44.281Z,69.54
2022-09-12T21:40:11.323Z,69.19
2022-09-12T21:42:38.188Z,69.30
2022-09-12T21:45:05.288Z,68.63
2022-09-12T21:47:32.082Z,69.22
2022-09-12T21:49:58.807Z,69.76
2022-09-12T21:52:25.668Z,70.17
2022-09-12T21:54:52.351Z,69.49
2022-09-12T21:57:19.042Z,69.16
2022-09-12T21:59:45.773Z,68.71
2022-09-12T22:02:13.845Z,68.57
2022-09-12T22:04:40.544Z,68.89
2022-09-12T22:07:07.835Z,68.48
2022-09-12T22:09:34.822Z,68.61
2022-09-12T22:12:02.445Z,68.96
2022-09-12T22:14:29.534Z,69.29
2022-09-12T22:16:56.798Z,69.23
2022-09-12T22:19:23.688Z,69.35
2022-09-12T22:22:09.285Z,69.42
2022-09-12T22:24:36.136Z,68.44
2022-09-12T22:27:04.687Z,68.89
2022-09-12T22:29:32.060Z,68.30
2022-09-12T22:31:59.572Z,68.47
2022-09-12T22:34:27.231Z,68.51
2022-09-12T22:36:54.139Z,68.86
2022-09-12T22:39:20.918Z,68.71
2022-09-12T22:41:47.597Z,68.82
2022-09-12T22:44:14.367Z,68.87
2022-09-12T22:46:41.138Z,69.35
2022-09-12T22:49:07.985Z,69.10
2022-09-12T22:51:35.325Z,70.61
2022-09-12T22:54:02.484Z,70.67
2022-09-12T22:56:29.295Z,70.59
2022-09-12T22:58:56.083Z,71.77
2022-09-12T23:01:24.007Z,72.03
2022-09-12T23:03:51.236Z,71.38
2022-09-12T23:06:18.025Z,71.34
2022-09-12T23:08:44.858Z,71.63
2022-09-12T23:11:17.429Z,71.60
2022-09-12T23:13:46.286Z,72.01
2022-09-12T23:16:24.984Z,71.04
2022-09-12T23:18:52.332Z,71.58
2022-09-12T23:21:20.554Z,72.93
2022-09-12T23:23:47.725Z,72.88
2022-09-12T23:26:22.679Z,72.67
2022-09-12T23:28:55.309Z,73.69
2022-09-12T23:31:24.277Z,74.06
2022-09-12T23:33:54.660Z,73.55
2022-09-12T23:36:22.486Z,74.20
2022-09-12T23:38:49.738Z,73.72
2022-09-12T23:41:17.982Z,73.72
2022-09-12T23:43:45.659Z,73.75
2022-09-12T23:46:13.675Z,74.05
2022-09-12T23:48:41.092Z,74.07
2022-09-12T23:51:07.842Z,73.42
2022-09-12T23:53:35.795Z,73.34
2022-09-12T23:56:03.248Z,73.62
2022-09-12T23:58:31.012Z,73.51
